sensor_id;sensor_type;location;lat;lon;timestamp;P1;durP1;ratioP1;P2;durP2;ratioP2
9864;SDS011;4971;52.398;9.774;2022-10-16T00:00:44;0.55;;;0.55;;
9864;SDS011;4971;52.398;9.774;2022-10-16T00:03:10;0.25;;;0.25;;
9864;SDS011;4971;52.398;9.774;2022-10-16T00:05:40;0.20;;;0.20;;
9864;SDS011;4971;52.398;9.774;2022-10-16T00:08:08;0.32;;;0.32;;
9864;SDS011;4971;52.398;9.774;2022-10-16T00:10:34;0.20;;;0.20;;
9864;SDS011;4971;52.398;9.774;2022-10-16T00:13:00;0.25;;;0.25;;
9864;SDS011;4971;52.398;9.774;2022-10-16T00:15:26;0.98;;;0.43;;
9864;SDS011;4971;52.398;9.774;2022-10-16T00:17:52;0.20;;;0.20;;
9864;SDS011;4971;52.398;9.774;2022-10-16T00:20:18;0.30;;;0.30;;
9864;SDS011;4971;52.398;9.774;2022-10-16T00:22:43;0.20;;;0.20;;
9864;SDS011;4971;52.398;9.774;2022-10-16T00:25:09;0.20;;;0.20;;
9864;SDS011;4971;52.398;9.774;2022-10-16T00:27:35;0.20;;;0.20;;
9864;SDS011;4971;52.398;9.774;2022-10-16T00:30:01;0.30;;;0.30;;
9864;SDS011;4971;52.398;9.774;2022-10-16T00:32:27;0.20;;;0.20;;
9864;SDS011;4971;52.398;9.774;2022-10-16T00:34:53;0.55;;;0.55;;
9864;SDS011;4971;52.398;9.774;2022-10-16T00:37:19;0.20;;;0.20;;
9864;SDS011;4971;52.398;9.774;2022-10-16T00:39:45;0.20;;;0.20;;
9864;SDS011;4971;52.398;9.774;2022-10-16T00:42:15;0.20;;;0.20;;
9864;SDS011;4971;52.398;9.774;2022-10-16T00:47:27;0.65;;;0.40;;
9864;SDS011;4971;52.398;9.774;2022-10-16T00:50:28;0.20;;;0.20;;
9864;SDS011;4971;52.398;9.774;2022-10-16T00:52:56;0.20;;;0.20;;
9864;SDS011;4971;52.398;9.774;2022-10-16T00:55:23;0.22;;;0.22;;
9864;SDS011;4971;52.398;9.774;2022-10-16T00:57:50;0.20;;;0.20;;
9864;SDS011;4971;52.398;9.774;2022-10-16T01:00:21;0.20;;;0.20;;
9864;SDS011;4971;52.398;9.774;2022-10-16T01:02:54;0.22;;;0.22;;
9864;SDS011;4971;52.398;9.774;2022-10-16T01:05:21;0.20;;;0.20;;
9864;SDS011;4971;52.398;9.774;2022-10-16T01:08:17;0.22;;;0.22;;
9864;SDS011;4971;52.398;9.774;2022-10-16T01:13:31;0.30;;;0.30;;
9864;SDS011;4971;52.398;9.774;2022-10-16T01:18:37;0.20;;;0.20;;
9864;SDS011;4971;52.398;9.774;2022-10-16T01:21:36;0.25;;;0.25;;
9864;SDS011;4971;52.398;9.774;2022-10-16T01:32:13;0.10;;;0.10;;
9864;SDS011;4971;52.398;9.774;2022-10-16T01:34:47;0.20;;;0.20;;
9864;SDS011;4971;52.398;9.774;2022-10-16T01:37:25;0.15;;;0.15;;
9864;SDS011;4971;52.398;9.774;2022-10-16T01:40:16;0.20;;;0.20;;
9864;SDS011;4971;52.398;9.774;2022-10-16T01:42:46;0.50;;;0.50;;
9864;SDS011;4971;52.398;9.774;2022-10-16T01:45:17;0.25;;;0.25;;
9864;SDS011;4971;52.398;9.774;2022-10-16T01:47:44;0.40;;;0.40;;
9864;SDS011;4971;52.398;9.774;2022-10-16T01:50:12;0.30;;;0.30;;
9864;SDS011;4971;52.398;9.774;2022-10-16T01:52:42;0.22;;;0.22;;
9864;SDS011;4971;52.398;9.774;2022-10-16T01:55:09;0.30;;;0.30;;
9864;SDS011;4971;52.398;9.774;2022-10-16T01:57:37;0.30;;;0.30;;
9864;SDS011;4971;52.398;9.774;2022-10-16T02:00:08;0.28;;;0.28;;
9864;SDS011;4971;52.398;9.774;2022-10-16T02:02:35;0.40;;;0.40;;
9864;SDS011;4971;52.398;9.774;2022-10-16T02:05:18;0.30;;;0.30;;
9864;SDS011;4971;52.398;9.774;2022-10-16T02:07:53;0.55;;;0.55;;
9864;SDS011;4971;52.398;9.774;2022-10-16T02:10:19;0.20;;;0.20;;
9864;SDS011;4971;52.398;9.774;2022-10-16T02:12:48;0.30;;;0.30;;
9864;SDS011;4971;52.398;9.774;2022-10-16T02:15:20;0.20;;;0.20;;
9864;SDS011;4971;52.398;9.774;2022-10-16T02:17:46;0.20;;;0.20;;
9864;SDS011;4971;52.398;9.774;2022-10-16T02:20:12;0.20;;;0.20;;
9864;SDS011;4971;52.398;9.774;2022-10-16T02:22:39;0.40;;;0.40;;
9864;SDS011;4971;52.398;9.774;2022-10-16T02:32:51;0.35;;;0.28;;
9864;SDS011;4971;52.398;9.774;2022-10-16T02:35:18;0.25;;;0.25;;
9864;SDS011;4971;52.398;9.774;2022-10-16T02:37:47;0.20;;;0.20;;
9864;SDS011;4971;52.398;9.774;2022-10-16T02:40:15;0.28;;;0.28;;
9864;SDS011;4971;52.398;9.774;2022-10-16T02:42:41;0.20;;;0.20;;
9864;SDS011;4971;52.398;9.774;2022-10-16T02:45:08;0.30;;;0.30;;
9864;SDS011;4971;52.398;9.774;2022-10-16T02:47:35;0.30;;;0.30;;
9864;SDS011;4971;52.398;9.774;2022-10-16T02:50:01;0.30;;;0.30;;
9864;SDS011;4971;52.398;9.774;2022-10-16T02:52:27;0.20;;;0.20;;
9864;SDS011;4971;52.398;9.774;2022-10-16T02:54:53;0.20;;;0.20;;
9864;SDS011;4971;52.398;9.774;2022-10-16T02:57:19;0.40;;;0.40;;
9864;SDS011;4971;52.398;9.774;2022-10-16T02:59:45;0.30;;;0.30;;
9864;SDS011;4971;52.398;9.774;2022-10-16T03:02:11;0.28;;;0.28;;
9864;SDS011;4971;52.398;9.774;2022-10-16T03:04:37;0.40;;;0.40;;
9864;SDS011;4971;52.398;9.774;2022-10-16T03:07:03;0.30;;;0.30;;
9864;SDS011;4971;52.398;9.774;2022-10-16T03:09:29;0.25;;;0.25;;
9864;SDS011;4971;52.398;9.774;2022-10-16T03:11:54;0.38;;;0.38;;
9864;SDS011;4971;52.398;9.774;2022-10-16T03:14:20;0.63;;;0.50;;
9864;SDS011;4971;52.398;9.774;2022-10-16T03:16:46;0.28;;;0.28;;
9864;SDS011;4971;52.398;9.774;2022-10-16T03:19:12;0.30;;;0.30;;
9864;SDS011;4971;52.398;9.774;2022-10-16T03:21:38;0.30;;;0.30;;
9864;SDS011;4971;52.398;9.774;2022-10-16T03:24:04;0.32;;;0.32;;
9864;SDS011;4971;52.398;9.774;2022-10-16T03:26:30;0.20;;;0.20;;
9864;SDS011;4971;52.398;9.774;2022-10-16T03:28:56;0.20;;;0.20;;
9864;SDS011;4971;52.398;9.774;2022-10-16T03:31:22;0.30;;;0.30;;
9864;SDS011;4971;52.398;9.774;2022-10-16T03:33:48;0.20;;;0.20;;
9864;SDS011;4971;52.398;9.774;2022-10-16T03:36:14;0.30;;;0.30;;
9864;SDS011;4971;52.398;9.774;2022-10-16T03:38:41;0.20;;;0.20;;
9864;SDS011;4971;52.398;9.774;2022-10-16T03:41:07;0.20;;;0.20;;
9864;SDS011;4971;52.398;9.774;2022-10-16T03:43:32;0.20;;;0.20;;
9864;SDS011;4971;52.398;9.774;2022-10-16T03:45:58;0.20;;;0.20;;
9864;SDS011;4971;52.398;9.774;2022-10-16T03:48:24;0.30;;;0.30;;
9864;SDS011;4971;52.398;9.774;2022-10-16T03:50:50;0.20;;;0.20;;
9864;SDS011;4971;52.398;9.774;2022-10-16T03:53:16;0.40;;;0.40;;
9864;SDS011;4971;52.398;9.774;2022-10-16T03:55:42;0.20;;;0.20;;
9864;SDS011;4971;52.398;9.774;2022-10-16T03:58:08;0.50;;;0.50;;
9864;SDS011;4971;52.398;9.774;2022-10-16T04:00:34;0.30;;;0.30;;
9864;SDS011;4971;52.398;9.774;2022-10-16T04:03:00;0.28;;;0.28;;
9864;SDS011;4971;52.398;9.774;2022-10-16T04:05:26;3.78;;;0.70;;
9864;SDS011;4971;52.398;9.774;2022-10-16T04:07:52;0.20;;;0.20;;
9864;SDS011;4971;52.398;9.774;2022-10-16T04:10:18;0.30;;;0.30;;
9864;SDS011;4971;52.398;9.774;2022-10-16T04:12:44;0.30;;;0.30;;
9864;SDS011;4971;52.398;9.774;2022-10-16T04:15:10;0.35;;;0.35;;
9864;SDS011;4971;52.398;9.774;2022-10-16T04:17:36;0.30;;;0.30;;
9864;SDS011;4971;52.398;9.774;2022-10-16T04:20:02;0.30;;;0.30;;
9864;SDS011;4971;52.398;9.774;2022-10-16T04:22:28;0.20;;;0.20;;
9864;SDS011;4971;52.398;9.774;2022-10-16T04:24:54;0.30;;;0.30;;
9864;SDS011;4971;52.398;9.774;2022-10-16T04:27:19;0.30;;;0.30;;
9864;SDS011;4971;52.398;9.774;2022-10-16T04:29:45;0.20;;;0.20;;
9864;SDS011;4971;52.398;9.774;2022-10-16T04:32:11;0.20;;;0.20;;
9864;SDS011;4971;52.398;9.774;2022-10-16T04:34:38;0.47;;;0.47;;
9864;SDS011;4971;52.398;9.774;2022-10-16T04:37:04;0.55;;;0.55;;
9864;SDS011;4971;52.398;9.774;2022-10-16T04:39:30;0.40;;;0.40;;
9864;SDS011;4971;52.398;9.774;2022-10-16T04:41:56;0.28;;;0.28;;
9864;SDS011;4971;52.398;9.774;2022-10-16T04:44:21;0.20;;;0.20;;
9864;SDS011;4971;52.398;9.774;2022-10-16T04:46:49;0.30;;;0.30;;
9864;SDS011;4971;52.398;9.774;2022-10-16T04:49:15;0.20;;;0.20;;
9864;SDS011;4971;52.398;9.774;2022-10-16T04:51:41;0.30;;;0.30;;
9864;SDS011;4971;52.398;9.774;2022-10-16T04:54:08;0.20;;;0.20;;
9864;SDS011;4971;52.398;9.774;2022-10-16T04:56:35;0.68;;;0.68;;
9864;SDS011;4971;52.398;9.774;2022-10-16T04:59:08;0.20;;;0.20;;
9864;SDS011;4971;52.398;9.774;2022-10-16T05:01:34;0.40;;;0.40;;
9864;SDS011;4971;52.398;9.774;2022-10-16T05:04:00;0.20;;;0.20;;
9864;SDS011;4971;52.398;9.774;2022-10-16T05:06:26;1.30;;;0.88;;
9864;SDS011;4971;52.398;9.774;2022-10-16T05:08:52;0.57;;;0.57;;
9864;SDS011;4971;52.398;9.774;2022-10-16T05:11:17;0.22;;;0.22;;
9864;SDS011;4971;52.398;9.774;2022-10-16T05:13:43;0.38;;;0.38;;
9864;SDS011;4971;52.398;9.774;2022-10-16T05:16:09;0.30;;;0.30;;
9864;SDS011;4971;52.398;9.774;2022-10-16T05:18:35;0.20;;;0.20;;
9864;SDS011;4971;52.398;9.774;2022-10-16T05:21:01;0.20;;;0.20;;
9864;SDS011;4971;52.398;9.774;2022-10-16T05:23:27;0.30;;;0.30;;
9864;SDS011;4971;52.398;9.774;2022-10-16T05:25:53;0.28;;;0.28;;
9864;SDS011;4971;52.398;9.774;2022-10-16T05:28:23;0.38;;;0.38;;
9864;SDS011;4971;52.398;9.774;2022-10-16T05:30:49;0.30;;;0.30;;
9864;SDS011;4971;52.398;9.774;2022-10-16T05:33:15;0.20;;;0.20;;
9864;SDS011;4971;52.398;9.774;2022-10-16T05:35:41;1.55;;;0.50;;
9864;SDS011;4971;52.398;9.774;2022-10-16T05:38:07;0.80;;;0.50;;
9864;SDS011;4971;52.398;9.774;2022-10-16T05:40:32;0.30;;;0.30;;
9864;SDS011;4971;52.398;9.774;2022-10-16T05:42:58;0.47;;;0.47;;
9864;SDS011;4971;52.398;9.774;2022-10-16T05:45:24;0.20;;;0.20;;
9864;SDS011;4971;52.398;9.774;2022-10-16T05:47:50;0.30;;;0.30;;
9864;SDS011;4971;52.398;9.774;2022-10-16T05:50:16;0.25;;;0.25;;
9864;SDS011;4971;52.398;9.774;2022-10-16T05:52:42;0.30;;;0.30;;
9864;SDS011;4971;52.398;9.774;2022-10-16T05:55:08;0.20;;;0.20;;
9864;SDS011;4971;52.398;9.774;2022-10-16T05:57:33;0.20;;;0.20;;
9864;SDS011;4971;52.398;9.774;2022-10-16T05:59:59;0.30;;;0.30;;
9864;SDS011;4971;52.398;9.774;2022-10-16T06:02:25;0.30;;;0.30;;
9864;SDS011;4971;52.398;9.774;2022-10-16T06:04:51;0.30;;;0.30;;
9864;SDS011;4971;52.398;9.774;2022-10-16T06:07:20;0.20;;;0.20;;
9864;SDS011;4971;52.398;9.774;2022-10-16T06:09:49;0.30;;;0.30;;
9864;SDS011;4971;52.398;9.774;2022-10-16T06:12:16;0.30;;;0.30;;
9864;SDS011;4971;52.398;9.774;2022-10-16T06:14:42;0.20;;;0.20;;
9864;SDS011;4971;52.398;9.774;2022-10-16T06:17:07;0.35;;;0.35;;
9864;SDS011;4971;52.398;9.774;2022-10-16T06:19:33;0.20;;;0.20;;
9864;SDS011;4971;52.398;9.774;2022-10-16T06:21:59;0.40;;;0.40;;
9864;SDS011;4971;52.398;9.774;2022-10-16T06:24:27;0.60;;;0.60;;
9864;SDS011;4971;52.398;9.774;2022-10-16T06:26:53;0.40;;;0.40;;
9864;SDS011;4971;52.398;9.774;2022-10-16T06:29:19;0.20;;;0.20;;
9864;SDS011;4971;52.398;9.774;2022-10-16T06:31:45;0.30;;;0.30;;
9864;SDS011;4971;52.398;9.774;2022-10-16T06:34:10;0.30;;;0.30;;
9864;SDS011;4971;52.398;9.774;2022-10-16T06:36:37;0.30;;;0.30;;
9864;SDS011;4971;52.398;9.774;2022-10-16T06:39:03;0.55;;;0.55;;
9864;SDS011;4971;52.398;9.774;2022-10-16T06:41:30;0.43;;;0.43;;
9864;SDS011;4971;52.398;9.774;2022-10-16T06:43:56;0.40;;;0.40;;
9864;SDS011;4971;52.398;9.774;2022-10-16T06:46:26;0.30;;;0.30;;
9864;SDS011;4971;52.398;9.774;2022-10-16T06:48:52;0.68;;;0.68;;
9864;SDS011;4971;52.398;9.774;2022-10-16T06:51:19;0.22;;;0.22;;
9864;SDS011;4971;52.398;9.774;2022-10-16T06:53:47;0.20;;;0.20;;
9864;SDS011;4971;52.398;9.774;2022-10-16T06:56:15;0.30;;;0.30;;
9864;SDS011;4971;52.398;9.774;2022-10-16T06:58:42;0.30;;;0.30;;
9864;SDS011;4971;52.398;9.774;2022-10-16T07:01:08;0.28;;;0.28;;
9864;SDS011;4971;52.398;9.774;2022-10-16T07:03:41;0.45;;;0.45;;
9864;SDS011;4971;52.398;9.774;2022-10-16T07:06:09;0.55;;;0.55;;
9864;SDS011;4971;52.398;9.774;2022-10-16T07:08:39;0.40;;;0.40;;
9864;SDS011;4971;52.398;9.774;2022-10-16T07:11:08;0.30;;;0.30;;
9864;SDS011;4971;52.398;9.774;2022-10-16T07:13:39;0.30;;;0.30;;
9864;SDS011;4971;52.398;9.774;2022-10-16T07:16:39;0.30;;;0.30;;
9864;SDS011;4971;52.398;9.774;2022-10-16T07:18:58;0.47;;;0.47;;
9864;SDS011;4971;52.398;9.774;2022-10-16T07:21:26;0.20;;;0.20;;
9864;SDS011;4971;52.398;9.774;2022-10-16T07:23:58;0.30;;;0.30;;
9864;SDS011;4971;52.398;9.774;2022-10-16T07:26:26;0.30;;;0.30;;
9864;SDS011;4971;52.398;9.774;2022-10-16T07:28:53;0.30;;;0.30;;
9864;SDS011;4971;52.398;9.774;2022-10-16T07:31:19;0.30;;;0.30;;
9864;SDS011;4971;52.398;9.774;2022-10-16T07:33:46;0.40;;;0.40;;
9864;SDS011;4971;52.398;9.774;2022-10-16T07:36:13;0.20;;;0.20;;
9864;SDS011;4971;52.398;9.774;2022-10-16T07:38:43;0.30;;;0.30;;
9864;SDS011;4971;52.398;9.774;2022-10-16T07:41:10;0.20;;;0.20;;
9864;SDS011;4971;52.398;9.774;2022-10-16T07:43:37;0.30;;;0.30;;
9864;SDS011;4971;52.398;9.774;2022-10-16T07:46:03;0.40;;;0.40;;
9864;SDS011;4971;52.398;9.774;2022-10-16T07:48:30;0.30;;;0.30;;
9864;SDS011;4971;52.398;9.774;2022-10-16T07:50:58;0.30;;;0.30;;
9864;SDS011;4971;52.398;9.774;2022-10-16T07:53:30;0.20;;;0.20;;
9864;SDS011;4971;52.398;9.774;2022-10-16T07:56:00;0.28;;;0.28;;
9864;SDS011;4971;52.398;9.774;2022-10-16T07:58:28;0.30;;;0.30;;
9864;SDS011;4971;52.398;9.774;2022-10-16T08:00:54;0.40;;;0.40;;
9864;SDS011;4971;52.398;9.774;2022-10-16T08:03:20;0.25;;;0.25;;
9864;SDS011;4971;52.398;9.774;2022-10-16T08:05:46;0.38;;;0.38;;
9864;SDS011;4971;52.398;9.774;2022-10-16T08:08:13;0.20;;;0.20;;
9864;SDS011;4971;52.398;9.774;2022-10-16T08:10:40;0.35;;;0.35;;
9864;SDS011;4971;52.398;9.774;2022-10-16T08:13:06;0.22;;;0.22;;
9864;SDS011;4971;52.398;9.774;2022-10-16T08:15:32;0.30;;;0.30;;
9864;SDS011;4971;52.398;9.774;2022-10-16T08:17:58;0.52;;;0.52;;
9864;SDS011;4971;52.398;9.774;2022-10-16T08:20:25;0.30;;;0.30;;
9864;SDS011;4971;52.398;9.774;2022-10-16T08:22:52;0.35;;;0.35;;
9864;SDS011;4971;52.398;9.774;2022-10-16T08:25:19;0.30;;;0.30;;
9864;SDS011;4971;52.398;9.774;2022-10-16T08:27:45;0.30;;;0.30;;
9864;SDS011;4971;52.398;9.774;2022-10-16T08:30:10;0.30;;;0.30;;
9864;SDS011;4971;52.398;9.774;2022-10-16T08:32:36;0.30;;;0.30;;
9864;SDS011;4971;52.398;9.774;2022-10-16T08:35:03;0.30;;;0.30;;
9864;SDS011;4971;52.398;9.774;2022-10-16T08:37:32;0.25;;;0.25;;
9864;SDS011;4971;52.398;9.774;2022-10-16T08:39:58;0.30;;;0.30;;
9864;SDS011;4971;52.398;9.774;2022-10-16T08:45:06;0.35;;;0.35;;
9864;SDS011;4971;52.398;9.774;2022-10-16T08:50:45;0.30;;;0.30;;
9864;SDS011;4971;52.398;9.774;2022-10-16T08:53:15;0.45;;;0.45;;
9864;SDS011;4971;52.398;9.774;2022-10-16T08:55:46;0.40;;;0.40;;
9864;SDS011;4971;52.398;9.774;2022-10-16T08:58:21;0.40;;;0.40;;
9864;SDS011;4971;52.398;9.774;2022-10-16T09:00:55;0.40;;;0.40;;
9864;SDS011;4971;52.398;9.774;2022-10-16T09:16:44;0.40;;;0.40;;
9864;SDS011;4971;52.398;9.774;2022-10-16T09:21:49;0.50;;;0.50;;
9864;SDS011;4971;52.398;9.774;2022-10-16T09:24:20;0.50;;;0.50;;
9864;SDS011;4971;52.398;9.774;2022-10-16T09:26:49;0.65;;;0.65;;
9864;SDS011;4971;52.398;9.774;2022-10-16T09:29:15;0.60;;;0.60;;
9864;SDS011;4971;52.398;9.774;2022-10-16T09:31:44;0.60;;;0.60;;
9864;SDS011;4971;52.398;9.774;2022-10-16T09:34:16;0.50;;;0.50;;
9864;SDS011;4971;52.398;9.774;2022-10-16T09:36:44;0.60;;;0.60;;
9864;SDS011;4971;52.398;9.774;2022-10-16T09:39:11;0.60;;;0.60;;
9864;SDS011;4971;52.398;9.774;2022-10-16T09:41:37;0.90;;;0.70;;
9864;SDS011;4971;52.398;9.774;2022-10-16T09:44:05;0.60;;;0.60;;
9864;SDS011;4971;52.398;9.774;2022-10-16T09:46:44;0.52;;;0.52;;
9864;SDS011;4971;52.398;9.774;2022-10-16T09:49:49;0.50;;;0.50;;
9864;SDS011;4971;52.398;9.774;2022-10-16T09:52:05;0.50;;;0.50;;
9864;SDS011;4971;52.398;9.774;2022-10-16T09:54:32;0.50;;;0.50;;
9864;SDS011;4971;52.398;9.774;2022-10-16T09:57:05;0.50;;;0.50;;
9864;SDS011;4971;52.398;9.774;2022-10-16T09:59:32;0.60;;;0.60;;
9864;SDS011;4971;52.398;9.774;2022-10-16T10:02:01;0.60;;;0.60;;
9864;SDS011;4971;52.398;9.774;2022-10-16T10:04:37;0.70;;;0.70;;
9864;SDS011;4971;52.398;9.774;2022-10-16T10:07:06;0.63;;;0.63;;
9864;SDS011;4971;52.398;9.774;2022-10-16T10:10:04;0.50;;;0.50;;
9864;SDS011;4971;52.398;9.774;2022-10-16T10:12:30;0.50;;;0.50;;
9864;SDS011;4971;52.398;9.774;2022-10-16T10:15:02;0.63;;;0.63;;
9864;SDS011;4971;52.398;9.774;2022-10-16T10:17:31;0.60;;;0.60;;
9864;SDS011;4971;52.398;9.774;2022-10-16T10:19:58;0.47;;;0.47;;
9864;SDS011;4971;52.398;9.774;2022-10-16T10:22:27;0.40;;;0.40;;
9864;SDS011;4971;52.398;9.774;2022-10-16T10:30:47;0.43;;;0.43;;
9864;SDS011;4971;52.398;9.774;2022-10-16T10:35:53;0.40;;;0.40;;
9864;SDS011;4971;52.398;9.774;2022-10-16T10:41:11;0.40;;;0.40;;
9864;SDS011;4971;52.398;9.774;2022-10-16T11:07:30;0.45;;;0.45;;
9864;SDS011;4971;52.398;9.774;2022-10-16T11:10:03;0.30;;;0.30;;
9864;SDS011;4971;52.398;9.774;2022-10-16T11:12:38;0.40;;;0.40;;
9864;SDS011;4971;52.398;9.774;2022-10-16T11:15:21;0.40;;;0.40;;
9864;SDS011;4971;52.398;9.774;2022-10-16T11:17:58;0.47;;;0.47;;
9864;SDS011;4971;52.398;9.774;2022-10-16T11:23:15;0.38;;;0.38;;
9864;SDS011;4971;52.398;9.774;2022-10-16T11:25:46;0.40;;;0.40;;
9864;SDS011;4971;52.398;9.774;2022-10-16T11:28:14;0.50;;;0.50;;
9864;SDS011;4971;52.398;9.774;2022-10-16T11:31:05;0.60;;;0.60;;
9864;SDS011;4971;52.398;9.774;2022-10-16T11:41:29;0.32;;;0.32;;
9864;SDS011;4971;52.398;9.774;2022-10-16T11:49:44;0.40;;;0.40;;
9864;SDS011;4971;52.398;9.774;2022-10-16T11:52:17;0.30;;;0.30;;
9864;SDS011;4971;52.398;9.774;2022-10-16T11:57:39;0.38;;;0.38;;
9864;SDS011;4971;52.398;9.774;2022-10-16T12:00:44;0.40;;;0.40;;
9864;SDS011;4971;52.398;9.774;2022-10-16T12:03:20;0.40;;;0.40;;
9864;SDS011;4971;52.398;9.774;2022-10-16T12:08:19;0.40;;;0.40;;
9864;SDS011;4971;52.398;9.774;2022-10-16T12:10:46;0.30;;;0.30;;
9864;SDS011;4971;52.398;9.774;2022-10-16T12:18:31;0.47;;;0.47;;
9864;SDS011;4971;52.398;9.774;2022-10-16T12:20:58;0.47;;;0.47;;
9864;SDS011;4971;52.398;9.774;2022-10-16T12:23:30;0.50;;;0.50;;
9864;SDS011;4971;52.398;9.774;2022-10-16T12:25:57;0.45;;;0.35;;
9864;SDS011;4971;52.398;9.774;2022-10-16T12:28:31;0.50;;;0.50;;
9864;SDS011;4971;52.398;9.774;2022-10-16T12:31:02;0.52;;;0.52;;
9864;SDS011;4971;52.398;9.774;2022-10-16T12:33:33;0.47;;;0.47;;
9864;SDS011;4971;52.398;9.774;2022-10-16T12:36:45;0.30;;;0.30;;
9864;SDS011;4971;52.398;9.774;2022-10-16T12:38:57;0.40;;;0.40;;
9864;SDS011;4971;52.398;9.774;2022-10-16T12:41:27;0.20;;;0.20;;
9864;SDS011;4971;52.398;9.774;2022-10-16T12:43:53;0.40;;;0.40;;
9864;SDS011;4971;52.398;9.774;2022-10-16T12:46:21;0.40;;;0.40;;
9864;SDS011;4971;52.398;9.774;2022-10-16T12:48:47;0.40;;;0.40;;
9864;SDS011;4971;52.398;9.774;2022-10-16T12:54:04;0.40;;;0.40;;
9864;SDS011;4971;52.398;9.774;2022-10-16T13:08:33;0.40;;;0.40;;
9864;SDS011;4971;52.398;9.774;2022-10-16T13:16:44;0.30;;;0.30;;
9864;SDS011;4971;52.398;9.774;2022-10-16T13:22:23;0.40;;;0.40;;
9864;SDS011;4971;52.398;9.774;2022-10-16T13:27:46;0.47;;;0.47;;
9864;SDS011;4971;52.398;9.774;2022-10-16T13:30:27;0.50;;;0.50;;
9864;SDS011;4971;52.398;9.774;2022-10-16T13:33:07;0.40;;;0.40;;
9864;SDS011;4971;52.398;9.774;2022-10-16T13:35:46;0.43;;;0.43;;
9864;SDS011;4971;52.398;9.774;2022-10-16T13:38:23;0.55;;;0.55;;
9864;SDS011;4971;52.398;9.774;2022-10-16T13:40:57;0.30;;;0.30;;
9864;SDS011;4971;52.398;9.774;2022-10-16T13:43:31;0.75;;;0.75;;
9864;SDS011;4971;52.398;9.774;2022-10-16T13:46:18;0.30;;;0.30;;
9864;SDS011;4971;52.398;9.774;2022-10-16T13:49:02;0.40;;;0.40;;
9864;SDS011;4971;52.398;9.774;2022-10-16T13:51:30;0.50;;;0.50;;
9864;SDS011;4971;52.398;9.774;2022-10-16T13:53:56;0.40;;;0.40;;
9864;SDS011;4971;52.398;9.774;2022-10-16T13:56:25;0.35;;;0.35;;
9864;SDS011;4971;52.398;9.774;2022-10-16T13:58:59;0.30;;;0.30;;
9864;SDS011;4971;52.398;9.774;2022-10-16T14:01:34;0.85;;;0.85;;
9864;SDS011;4971;52.398;9.774;2022-10-16T14:04:09;0.40;;;0.40;;
9864;SDS011;4971;52.398;9.774;2022-10-16T14:06:40;0.32;;;0.32;;
9864;SDS011;4971;52.398;9.774;2022-10-16T14:09:09;0.30;;;0.30;;
9864;SDS011;4971;52.398;9.774;2022-10-16T14:11:53;0.30;;;0.30;;
9864;SDS011;4971;52.398;9.774;2022-10-16T14:14:20;0.55;;;0.47;;
9864;SDS011;4971;52.398;9.774;2022-10-16T14:16:46;0.38;;;0.38;;
9864;SDS011;4971;52.398;9.774;2022-10-16T14:19:14;0.40;;;0.40;;
9864;SDS011;4971;52.398;9.774;2022-10-16T14:21:53;0.35;;;0.35;;
9864;SDS011;4971;52.398;9.774;2022-10-16T14:24:26;0.40;;;0.40;;
9864;SDS011;4971;52.398;9.774;2022-10-16T14:26:56;1.65;;;0.40;;
9864;SDS011;4971;52.398;9.774;2022-10-16T14:29:22;0.30;;;0.30;;
9864;SDS011;4971;52.398;9.774;2022-10-16T14:32:00;0.40;;;0.40;;
9864;SDS011;4971;52.398;9.774;2022-10-16T14:34:30;0.40;;;0.40;;
9864;SDS011;4971;52.398;9.774;2022-10-16T14:36:59;0.40;;;0.40;;
9864;SDS011;4971;52.398;9.774;2022-10-16T14:39:31;0.40;;;0.40;;
9864;SDS011;4971;52.398;9.774;2022-10-16T14:41:58;0.57;;;0.57;;
9864;SDS011;4971;52.398;9.774;2022-10-16T14:44:27;0.35;;;0.35;;
9864;SDS011;4971;52.398;9.774;2022-10-16T14:46:54;0.40;;;0.40;;
9864;SDS011;4971;52.398;9.774;2022-10-16T14:49:21;0.40;;;0.40;;
9864;SDS011;4971;52.398;9.774;2022-10-16T14:51:47;0.30;;;0.30;;
9864;SDS011;4971;52.398;9.774;2022-10-16T14:54:14;0.50;;;0.50;;
9864;SDS011;4971;52.398;9.774;2022-10-16T14:56:42;0.50;;;0.50;;
9864;SDS011;4971;52.398;9.774;2022-10-16T14:59:14;1.35;;;0.50;;
9864;SDS011;4971;52.398;9.774;2022-10-16T15:01:43;0.40;;;0.40;;
9864;SDS011;4971;52.398;9.774;2022-10-16T15:04:10;0.60;;;0.60;;
9864;SDS011;4971;52.398;9.774;2022-10-16T15:06:37;0.68;;;0.60;;
9864;SDS011;4971;52.398;9.774;2022-10-16T15:09:03;0.43;;;0.43;;
9864;SDS011;4971;52.398;9.774;2022-10-16T15:11:29;0.50;;;0.50;;
9864;SDS011;4971;52.398;9.774;2022-10-16T15:13:57;0.50;;;0.50;;
9864;SDS011;4971;52.398;9.774;2022-10-16T15:16:23;0.40;;;0.40;;
9864;SDS011;4971;52.398;9.774;2022-10-16T15:18:49;0.60;;;0.60;;
9864;SDS011;4971;52.398;9.774;2022-10-16T15:21:29;2.40;;;0.40;;
9864;SDS011;4971;52.398;9.774;2022-10-16T15:23:57;0.40;;;0.40;;
9864;SDS011;4971;52.398;9.774;2022-10-16T15:26:24;0.52;;;0.52;;
9864;SDS011;4971;52.398;9.774;2022-10-16T15:28:51;0.30;;;0.30;;
9864;SDS011;4971;52.398;9.774;2022-10-16T15:31:17;0.40;;;0.40;;
9864;SDS011;4971;52.398;9.774;2022-10-16T15:33:43;0.40;;;0.40;;
9864;SDS011;4971;52.398;9.774;2022-10-16T15:36:12;0.40;;;0.40;;
9864;SDS011;4971;52.398;9.774;2022-10-16T15:38:38;0.47;;;0.47;;
9864;SDS011;4971;52.398;9.774;2022-10-16T15:41:04;0.40;;;0.40;;
9864;SDS011;4971;52.398;9.774;2022-10-16T15:43:30;0.40;;;0.40;;
9864;SDS011;4971;52.398;9.774;2022-10-16T15:46:01;1.30;;;0.40;;
9864;SDS011;4971;52.398;9.774;2022-10-16T15:48:28;0.40;;;0.40;;
9864;SDS011;4971;52.398;9.774;2022-10-16T15:50:54;0.35;;;0.35;;
9864;SDS011;4971;52.398;9.774;2022-10-16T15:53:20;0.45;;;0.45;;
9864;SDS011;4971;52.398;9.774;2022-10-16T15:55:46;0.85;;;0.50;;
9864;SDS011;4971;52.398;9.774;2022-10-16T15:58:12;0.32;;;0.32;;
9864;SDS011;4971;52.398;9.774;2022-10-16T16:00:38;0.32;;;0.32;;
9864;SDS011;4971;52.398;9.774;2022-10-16T16:03:04;0.40;;;0.40;;
9864;SDS011;4971;52.398;9.774;2022-10-16T16:05:30;0.70;;;0.70;;
9864;SDS011;4971;52.398;9.774;2022-10-16T16:07:58;1.85;;;0.68;;
9864;SDS011;4971;52.398;9.774;2022-10-16T16:10:24;0.30;;;0.30;;
9864;SDS011;4971;52.398;9.774;2022-10-16T16:12:50;0.30;;;0.30;;
9864;SDS011;4971;52.398;9.774;2022-10-16T16:15:18;0.50;;;0.50;;
9864;SDS011;4971;52.398;9.774;2022-10-16T16:17:44;0.45;;;0.45;;
9864;SDS011;4971;52.398;9.774;2022-10-16T16:20:10;0.60;;;0.60;;
9864;SDS011;4971;52.398;9.774;2022-10-16T16:22:36;0.47;;;0.47;;
9864;SDS011;4971;52.398;9.774;2022-10-16T16:25:02;0.40;;;0.40;;
9864;SDS011;4971;52.398;9.774;2022-10-16T16:27:28;0.40;;;0.40;;
9864;SDS011;4971;52.398;9.774;2022-10-16T16:29:55;0.30;;;0.30;;
9864;SDS011;4971;52.398;9.774;2022-10-16T16:32:21;2.55;;;0.60;;
9864;SDS011;4971;52.398;9.774;2022-10-16T16:34:47;0.40;;;0.40;;
9864;SDS011;4971;52.398;9.774;2022-10-16T16:37:13;0.50;;;0.50;;
9864;SDS011;4971;52.398;9.774;2022-10-16T16:39:38;0.57;;;0.57;;
9864;SDS011;4971;52.398;9.774;2022-10-16T16:42:04;0.57;;;0.45;;
9864;SDS011;4971;52.398;9.774;2022-10-16T16:44:32;0.38;;;0.38;;
9864;SDS011;4971;52.398;9.774;2022-10-16T16:46:58;0.38;;;0.38;;
9864;SDS011;4971;52.398;9.774;2022-10-16T16:49:24;0.80;;;0.80;;
9864;SDS011;4971;52.398;9.774;2022-10-16T16:51:51;0.45;;;0.45;;
9864;SDS011;4971;52.398;9.774;2022-10-16T16:54:17;0.80;;;0.80;;
9864;SDS011;4971;52.398;9.774;2022-10-16T16:56:43;0.30;;;0.30;;
9864;SDS011;4971;52.398;9.774;2022-10-16T16:59:11;0.30;;;0.30;;
9864;SDS011;4971;52.398;9.774;2022-10-16T17:01:38;0.40;;;0.40;;
9864;SDS011;4971;52.398;9.774;2022-10-16T17:04:05;0.50;;;0.50;;
9864;SDS011;4971;52.398;9.774;2022-10-16T17:06:31;0.40;;;0.40;;
9864;SDS011;4971;52.398;9.774;2022-10-16T17:08:57;1.08;;;0.82;;
9864;SDS011;4971;52.398;9.774;2022-10-16T17:11:25;0.40;;;0.40;;
9864;SDS011;4971;52.398;9.774;2022-10-16T17:13:52;0.38;;;0.38;;
9864;SDS011;4971;52.398;9.774;2022-10-16T17:16:20;0.40;;;0.40;;
9864;SDS011;4971;52.398;9.774;2022-10-16T17:18:51;0.40;;;0.40;;
9864;SDS011;4971;52.398;9.774;2022-10-16T17:21:18;0.40;;;0.40;;
9864;SDS011;4971;52.398;9.774;2022-10-16T17:23:44;0.77;;;0.77;;
9864;SDS011;4971;52.398;9.774;2022-10-16T17:26:15;0.80;;;0.60;;
9864;SDS011;4971;52.398;9.774;2022-10-16T17:28:41;0.50;;;0.50;;
9864;SDS011;4971;52.398;9.774;2022-10-16T17:31:08;0.40;;;0.40;;
9864;SDS011;4971;52.398;9.774;2022-10-16T17:33:34;2.65;;;2.08;;
9864;SDS011;4971;52.398;9.774;2022-10-16T17:36:00;4.13;;;3.75;;
9864;SDS011;4971;52.398;9.774;2022-10-16T17:38:26;3.00;;;2.70;;